sensor_id;sensor_type;location;lat;lon;timestamp;P1;durP1;ratioP1;P2;durP2;ratioP2
11677;SDS011;5895;41.950;24.372;2023-04-24T00:01:25;7.55;;;6.20;;
11677;SDS011;5895;41.950;24.372;2023-04-24T00:03:52;6.40;;;5.55;;
11677;SDS011;5895;41.950;24.372;2023-04-24T00:06:19;8.18;;;5.68;;
11677;SDS011;5895;41.950;24.372;2023-04-24T00:08:48;6.97;;;6.18;;
11677;SDS011;5895;41.950;24.372;2023-04-24T00:11:17;6.25;;;5.65;;
11677;SDS011;5895;41.950;24.372;2023-04-24T00:13:45;6.20;;;5.60;;
11677;SDS011;5895;41.950;24.372;2023-04-24T00:16:12;5.80;;;5.30;;
11677;SDS011;5895;41.950;24.372;2023-04-24T00:18:39;5.85;;;5.35;;
11677;SDS011;5895;41.950;24.372;2023-04-24T00:21:06;6.70;;;5.25;;
11677;SDS011;5895;41.950;24.372;2023-04-24T00:23:33;6.78;;;5.93;;
11677;SDS011;5895;41.950;24.372;2023-04-24T00:26:00;5.60;;;5.00;;
11677;SDS011;5895;41.950;24.372;2023-04-24T00:28:29;7.20;;;5.57;;
11677;SDS011;5895;41.950;24.372;2023-04-24T00:30:57;6.40;;;5.80;;
11677;SDS011;5895;41.950;24.372;2023-04-24T00:33:24;7.53;;;5.43;;
11677;SDS011;5895;41.950;24.372;2023-04-24T00:35:51;6.95;;;6.35;;
11677;SDS011;5895;41.950;24.372;2023-04-24T00:38:18;6.90;;;6.30;;
11677;SDS011;5895;41.950;24.372;2023-04-24T00:40:45;6.28;;;5.78;;
11677;SDS011;5895;41.950;24.372;2023-04-24T00:43:12;7.38;;;5.78;;
11677;SDS011;5895;41.950;24.372;2023-04-24T00:45:41;6.55;;;5.63;;
11677;SDS011;5895;41.950;24.372;2023-04-24T00:48:08;5.93;;;5.38;;
11677;SDS011;5895;41.950;24.372;2023-04-24T00:50:36;7.53;;;5.63;;
11677;SDS011;5895;41.950;24.372;2023-04-24T00:53:03;6.63;;;5.93;;
11677;SDS011;5895;41.950;24.372;2023-04-24T00:55:30;8.77;;;6.15;;
11677;SDS011;5895;41.950;24.372;2023-04-24T00:57:58;7.63;;;5.70;;
11677;SDS011;5895;41.950;24.372;2023-04-24T01:00:26;6.07;;;5.55;;
11677;SDS011;5895;41.950;24.372;2023-04-24T01:02:54;6.55;;;5.95;;
11677;SDS011;5895;41.950;24.372;2023-04-24T01:05:23;6.00;;;5.35;;
11677;SDS011;5895;41.950;24.372;2023-04-24T01:07:51;5.63;;;5.10;;
11677;SDS011;5895;41.950;24.372;2023-04-24T01:10:18;6.03;;;5.38;;
11677;SDS011;5895;41.950;24.372;2023-04-24T01:12:45;5.88;;;5.30;;
11677;SDS011;5895;41.950;24.372;2023-04-24T01:15:13;6.53;;;5.97;;
11677;SDS011;5895;41.950;24.372;2023-04-24T01:17:40;5.10;;;4.60;;
11677;SDS011;5895;41.950;24.372;2023-04-24T01:20:09;6.13;;;5.53;;
11677;SDS011;5895;41.950;24.372;2023-04-24T01:22:38;5.78;;;5.25;;
11677;SDS011;5895;41.950;24.372;2023-04-24T01:25:06;6.38;;;5.43;;
11677;SDS011;5895;41.950;24.372;2023-04-24T01:27:34;6.50;;;6.00;;
11677;SDS011;5895;41.950;24.372;2023-04-24T01:30:01;5.93;;;5.35;;
11677;SDS011;5895;41.950;24.372;2023-04-24T01:32:28;6.50;;;5.90;;
11677;SDS011;5895;41.950;24.372;2023-04-24T01:34:55;7.10;;;6.43;;
11677;SDS011;5895;41.950;24.372;2023-04-24T01:37:23;6.68;;;5.97;;
11677;SDS011;5895;41.950;24.372;2023-04-24T01:39:53;6.43;;;5.85;;
11677;SDS011;5895;41.950;24.372;2023-04-24T01:42:20;6.10;;;5.55;;
11677;SDS011;5895;41.950;24.372;2023-04-24T01:44:48;6.10;;;5.60;;
11677;SDS011;5895;41.950;24.372;2023-04-24T01:47:16;5.82;;;5.32;;
11677;SDS011;5895;41.950;24.372;2023-04-24T01:49:43;6.47;;;5.35;;
11677;SDS011;5895;41.950;24.372;2023-04-24T01:52:12;5.93;;;5.43;;
11677;SDS011;5895;41.950;24.372;2023-04-24T01:54:39;6.22;;;5.72;;
11677;SDS011;5895;41.950;24.372;2023-04-24T01:57:08;5.93;;;5.32;;
11677;SDS011;5895;41.950;24.372;2023-04-24T01:59:35;8.18;;;7.03;;
11677;SDS011;5895;41.950;24.372;2023-04-24T02:02:02;7.90;;;6.03;;
11677;SDS011;5895;41.950;24.372;2023-04-24T02:04:29;6.47;;;5.88;;
11677;SDS011;5895;41.950;24.372;2023-04-24T02:06:56;6.72;;;6.18;;
11677;SDS011;5895;41.950;24.372;2023-04-24T02:09:24;7.50;;;6.80;;
11677;SDS011;5895;41.950;24.372;2023-04-24T02:11:51;6.45;;;5.85;;
11677;SDS011;5895;41.950;24.372;2023-04-24T02:14:19;6.75;;;6.15;;
11677;SDS011;5895;41.950;24.372;2023-04-24T02:16:46;6.57;;;6.00;;
11677;SDS011;5895;41.950;24.372;2023-04-24T02:19:14;8.43;;;7.72;;
11677;SDS011;5895;41.950;24.372;2023-04-24T02:21:41;7.97;;;7.28;;
11677;SDS011;5895;41.950;24.372;2023-04-24T02:24:08;8.35;;;7.28;;
11677;SDS011;5895;41.950;24.372;2023-04-24T02:26:35;8.38;;;7.55;;
11677;SDS011;5895;41.950;24.372;2023-04-24T02:29:02;8.00;;;7.30;;
11677;SDS011;5895;41.950;24.372;2023-04-24T02:31:32;7.72;;;6.93;;
11677;SDS011;5895;41.950;24.372;2023-04-24T02:33:59;6.82;;;6.22;;
11677;SDS011;5895;41.950;24.372;2023-04-24T02:36:26;6.05;;;5.45;;
11677;SDS011;5895;41.950;24.372;2023-04-24T02:38:53;7.97;;;5.85;;
11677;SDS011;5895;41.950;24.372;2023-04-24T02:41:20;6.57;;;5.97;;
11677;SDS011;5895;41.950;24.372;2023-04-24T02:43:47;7.13;;;6.43;;
11677;SDS011;5895;41.950;24.372;2023-04-24T02:46:15;9.82;;;6.20;;
11677;SDS011;5895;41.950;24.372;2023-04-24T02:48:43;7.72;;;6.93;;
11677;SDS011;5895;41.950;24.372;2023-04-24T02:51:11;7.90;;;7.18;;
11677;SDS011;5895;41.950;24.372;2023-04-24T02:53:38;7.22;;;6.53;;
11677;SDS011;5895;41.950;24.372;2023-04-24T02:56:05;7.10;;;6.45;;
11677;SDS011;5895;41.950;24.372;2023-04-24T02:58:32;7.25;;;6.65;;
11677;SDS011;5895;41.950;24.372;2023-04-24T03:01:00;10.10;;;7.38;;
11677;SDS011;5895;41.950;24.372;2023-04-24T03:03:27;7.38;;;6.63;;
11677;SDS011;5895;41.950;24.372;2023-04-24T03:05:56;7.93;;;7.22;;
11677;SDS011;5895;41.950;24.372;2023-04-24T03:08:24;8.95;;;7.80;;
11677;SDS011;5895;41.950;24.372;2023-04-24T03:10:51;8.30;;;7.50;;
11677;SDS011;5895;41.950;24.372;2023-04-24T03:13:18;7.97;;;7.18;;
11677;SDS011;5895;41.950;24.372;2023-04-24T03:15:45;6.93;;;6.32;;
11677;SDS011;5895;41.950;24.372;2023-04-24T03:18:12;7.97;;;7.18;;
11677;SDS011;5895;41.950;24.372;2023-04-24T03:20:39;6.60;;;6.10;;
11677;SDS011;5895;41.950;24.372;2023-04-24T03:23:08;8.32;;;7.60;;
11677;SDS011;5895;41.950;24.372;2023-04-24T03:25:35;8.82;;;8.02;;
11677;SDS011;5895;41.950;24.372;2023-04-24T03:28:02;8.73;;;7.93;;
11677;SDS011;5895;41.950;24.372;2023-04-24T03:30:29;10.77;;;9.55;;
11677;SDS011;5895;41.950;24.372;2023-04-24T03:32:56;11.55;;;10.35;;
11677;SDS011;5895;41.950;24.372;2023-04-24T03:35:23;10.02;;;9.07;;
11677;SDS011;5895;41.950;24.372;2023-04-24T03:37:50;8.70;;;7.88;;
11677;SDS011;5895;41.950;24.372;2023-04-24T03:40:19;9.05;;;8.00;;
11677;SDS011;5895;41.950;24.372;2023-04-24T03:42:46;8.68;;;7.88;;
11677;SDS011;5895;41.950;24.372;2023-04-24T03:45:13;18.50;;;15.80;;
11677;SDS011;5895;41.950;24.372;2023-04-24T03:47:40;13.38;;;10.68;;
11677;SDS011;5895;41.950;24.372;2023-04-24T03:50:07;13.50;;;12.20;;
11677;SDS011;5895;41.950;24.372;2023-04-24T03:52:35;10.18;;;9.18;;
11677;SDS011;5895;41.950;24.372;2023-04-24T03:55:02;11.50;;;8.88;;
11677;SDS011;5895;41.950;24.372;2023-04-24T03:57:32;13.48;;;10.82;;
11677;SDS011;5895;41.950;24.372;2023-04-24T04:00:00;11.13;;;9.75;;
11677;SDS011;5895;41.950;24.372;2023-04-24T04:02:29;11.32;;;10.18;;
11677;SDS011;5895;41.950;24.372;2023-04-24T04:04:56;9.90;;;8.90;;
11677;SDS011;5895;41.950;24.372;2023-04-24T04:07:23;10.30;;;8.50;;
11677;SDS011;5895;41.950;24.372;2023-04-24T04:09:50;9.32;;;8.52;;
11677;SDS011;5895;41.950;24.372;2023-04-24T04:12:17;10.07;;;9.18;;
11677;SDS011;5895;41.950;24.372;2023-04-24T04:14:46;10.32;;;9.15;;
11677;SDS011;5895;41.950;24.372;2023-04-24T04:17:13;9.95;;;8.68;;
11677;SDS011;5895;41.950;24.372;2023-04-24T04:19:40;15.43;;;12.65;;
11677;SDS011;5895;41.950;24.372;2023-04-24T04:22:07;14.00;;;11.70;;
11677;SDS011;5895;41.950;24.372;2023-04-24T04:24:34;13.95;;;10.95;;
11677;SDS011;5895;41.950;24.372;2023-04-24T04:27:03;17.48;;;15.63;;
11677;SDS011;5895;41.950;24.372;2023-04-24T04:29:30;16.13;;;13.88;;
11677;SDS011;5895;41.950;24.372;2023-04-24T04:31:59;15.00;;;12.70;;
11677;SDS011;5895;41.950;24.372;2023-04-24T04:34:26;15.23;;;12.95;;
11677;SDS011;5895;41.950;24.372;2023-04-24T04:36:54;9.38;;;8.45;;
11677;SDS011;5895;41.950;24.372;2023-04-24T04:39:21;10.85;;;9.85;;
11677;SDS011;5895;41.950;24.372;2023-04-24T04:41:48;14.50;;;12.13;;
11677;SDS011;5895;41.950;24.372;2023-04-24T04:44:15;13.75;;;12.23;;
11677;SDS011;5895;41.950;24.372;2023-04-24T04:46:42;15.60;;;12.68;;
11677;SDS011;5895;41.950;24.372;2023-04-24T04:49:11;15.50;;;12.35;;
11677;SDS011;5895;41.950;24.372;2023-04-24T04:51:38;13.55;;;11.95;;
11677;SDS011;5895;41.950;24.372;2023-04-24T04:54:05;15.50;;;11.57;;
11677;SDS011;5895;41.950;24.372;2023-04-24T04:56:32;16.70;;;12.23;;
11677;SDS011;5895;41.950;24.372;2023-04-24T04:59:00;13.68;;;12.27;;
11677;SDS011;5895;41.950;24.372;2023-04-24T05:01:27;13.98;;;12.10;;
11677;SDS011;5895;41.950;24.372;2023-04-24T05:03:54;13.40;;;12.07;;
11677;SDS011;5895;41.950;24.372;2023-04-24T05:06:22;12.52;;;10.30;;
11677;SDS011;5895;41.950;24.372;2023-04-24T05:08:50;18.77;;;16.42;;
11677;SDS011;5895;41.950;24.372;2023-04-24T05:11:21;12.50;;;11.20;;
11677;SDS011;5895;41.950;24.372;2023-04-24T05:13:48;20.27;;;18.08;;
11677;SDS011;5895;41.950;24.372;2023-04-24T05:16:15;16.52;;;14.82;;
11677;SDS011;5895;41.950;24.372;2023-04-24T05:18:42;10.52;;;9.43;;
11677;SDS011;5895;41.950;24.372;2023-04-24T05:21:09;8.38;;;7.53;;
11677;SDS011;5895;41.950;24.372;2023-04-24T05:23:38;7.80;;;7.20;;
11677;SDS011;5895;41.950;24.372;2023-04-24T05:26:05;13.15;;;10.95;;
11677;SDS011;5895;41.950;24.372;2023-04-24T05:28:32;9.20;;;8.45;;
11677;SDS011;5895;41.950;24.372;2023-04-24T05:31:01;10.30;;;9.27;;
11677;SDS011;5895;41.950;24.372;2023-04-24T05:33:28;16.95;;;14.98;;
11677;SDS011;5895;41.950;24.372;2023-04-24T05:35:55;24.60;;;22.08;;
11677;SDS011;5895;41.950;24.372;2023-04-24T05:38:22;22.83;;;20.42;;
11677;SDS011;5895;41.950;24.372;2023-04-24T05:40:51;17.65;;;15.85;;
11677;SDS011;5895;41.950;24.372;2023-04-24T05:43:18;37.10;;;31.42;;
11677;SDS011;5895;41.950;24.372;2023-04-24T05:45:45;18.27;;;16.40;;
11677;SDS011;5895;41.950;24.372;2023-04-24T05:48:12;9.32;;;8.43;;
11677;SDS011;5895;41.950;24.372;2023-04-24T05:50:40;8.68;;;7.90;;
11677;SDS011;5895;41.950;24.372;2023-04-24T05:53:07;8.90;;;7.93;;
11677;SDS011;5895;41.950;24.372;2023-04-24T05:55:36;10.20;;;7.10;;
11677;SDS011;5895;41.950;24.372;2023-04-24T05:58:04;7.25;;;6.55;;
11677;SDS011;5895;41.950;24.372;2023-04-24T06:00:32;6.53;;;5.95;;
11677;SDS011;5895;41.950;24.372;2023-04-24T06:03:01;6.70;;;6.20;;
11677;SDS011;5895;41.950;24.372;2023-04-24T06:05:29;6.70;;;6.10;;
11677;SDS011;5895;41.950;24.372;2023-04-24T06:07:56;7.05;;;6.45;;
11677;SDS011;5895;41.950;24.372;2023-04-24T06:10:23;6.75;;;5.90;;
11677;SDS011;5895;41.950;24.372;2023-04-24T06:12:50;7.07;;;6.45;;
11677;SDS011;5895;41.950;24.372;2023-04-24T06:15:19;6.78;;;6.18;;
11677;SDS011;5895;41.950;24.372;2023-04-24T06:17:47;6.40;;;5.90;;
11677;SDS011;5895;41.950;24.372;2023-04-24T06:20:14;6.75;;;6.25;;
11677;SDS011;5895;41.950;24.372;2023-04-24T06:22:41;6.57;;;6.07;;
11677;SDS011;5895;41.950;24.372;2023-04-24T06:25:08;6.60;;;5.70;;
11677;SDS011;5895;41.950;24.372;2023-04-24T06:27:35;5.93;;;5.43;;
11677;SDS011;5895;41.950;24.372;2023-04-24T06:30:03;7.22;;;5.95;;
11677;SDS011;5895;41.950;24.372;2023-04-24T06:32:32;7.80;;;6.10;;
11677;SDS011;5895;41.950;24.372;2023-04-24T06:34:59;6.18;;;5.57;;
11677;SDS011;5895;41.950;24.372;2023-04-24T06:37:26;8.00;;;6.57;;
11677;SDS011;5895;41.950;24.372;2023-04-24T06:39:53;6.80;;;6.00;;
11677;SDS011;5895;41.950;24.372;2023-04-24T06:42:20;6.13;;;5.63;;
11677;SDS011;5895;41.950;24.372;2023-04-24T06:44:47;6.45;;;5.95;;
11677;SDS011;5895;41.950;24.372;2023-04-24T06:47:14;5.20;;;4.70;;
11677;SDS011;5895;41.950;24.372;2023-04-24T06:49:43;5.82;;;5.30;;
11677;SDS011;5895;41.950;24.372;2023-04-24T06:52:10;5.72;;;5.18;;
11677;SDS011;5895;41.950;24.372;2023-04-24T06:54:37;5.72;;;4.90;;
11677;SDS011;5895;41.950;24.372;2023-04-24T06:57:04;5.30;;;4.90;;
11677;SDS011;5895;41.950;24.372;2023-04-24T06:59:31;5.50;;;5.00;;
11677;SDS011;5895;41.950;24.372;2023-04-24T07:01:58;5.40;;;4.88;;
11677;SDS011;5895;41.950;24.372;2023-04-24T07:04:26;5.20;;;4.80;;
11677;SDS011;5895;41.950;24.372;2023-04-24T07:06:54;5.43;;;4.90;;
11677;SDS011;5895;41.950;24.372;2023-04-24T07:09:23;5.78;;;5.20;;
11677;SDS011;5895;41.950;24.372;2023-04-24T07:11:51;6.20;;;5.30;;
11677;SDS011;5895;41.950;24.372;2023-04-24T07:14:19;5.82;;;5.22;;
11677;SDS011;5895;41.950;24.372;2023-04-24T07:16:46;6.03;;;5.43;;
11677;SDS011;5895;41.950;24.372;2023-04-24T07:19:14;6.18;;;5.68;;
11677;SDS011;5895;41.950;24.372;2023-04-24T07:21:41;5.57;;;5.07;;
11677;SDS011;5895;41.950;24.372;2023-04-24T07:24:09;5.85;;;5.35;;
11677;SDS011;5895;41.950;24.372;2023-04-24T07:26:38;6.15;;;5.32;;
11677;SDS011;5895;41.950;24.372;2023-04-24T07:29:05;5.45;;;4.97;;
11677;SDS011;5895;41.950;24.372;2023-04-24T07:31:32;5.28;;;4.88;;
11677;SDS011;5895;41.950;24.372;2023-04-24T07:33:59;7.18;;;5.85;;
11677;SDS011;5895;41.950;24.372;2023-04-24T07:36:27;6.07;;;5.47;;
11677;SDS011;5895;41.950;24.372;2023-04-24T07:38:55;5.53;;;5.03;;
11677;SDS011;5895;41.950;24.372;2023-04-24T07:41:24;6.47;;;5.88;;
11677;SDS011;5895;41.950;24.372;2023-04-24T07:43:52;5.95;;;5.45;;
11677;SDS011;5895;41.950;24.372;2023-04-24T07:46:20;6.20;;;5.60;;
11677;SDS011;5895;41.950;24.372;2023-04-24T07:48:48;4.95;;;4.57;;
11677;SDS011;5895;41.950;24.372;2023-04-24T07:51:15;5.85;;;5.35;;
11677;SDS011;5895;41.950;24.372;2023-04-24T07:53:42;7.88;;;5.20;;
11677;SDS011;5895;41.950;24.372;2023-04-24T07:56:10;5.63;;;5.15;;
11677;SDS011;5895;41.950;24.372;2023-04-24T07:58:38;5.22;;;4.82;;
11677;SDS011;5895;41.950;24.372;2023-04-24T08:01:06;5.40;;;5.00;;
11677;SDS011;5895;41.950;24.372;2023-04-24T08:03:33;6.43;;;5.50;;
11677;SDS011;5895;41.950;24.372;2023-04-24T08:06:00;5.97;;;5.43;;
11677;SDS011;5895;41.950;24.372;2023-04-24T08:08:27;5.93;;;5.40;;
11677;SDS011;5895;41.950;24.372;2023-04-24T08:10:55;6.10;;;5.50;;
11677;SDS011;5895;41.950;24.372;2023-04-24T08:13:22;5.72;;;5.30;;
11677;SDS011;5895;41.950;24.372;2023-04-24T08:15:50;5.93;;;5.22;;
11677;SDS011;5895;41.950;24.372;2023-04-24T08:18:17;5.70;;;5.20;;
11677;SDS011;5895;41.950;24.372;2023-04-24T08:20:45;9.13;;;5.47;;
11677;SDS011;5895;41.950;24.372;2023-04-24T08:23:12;6.20;;;5.70;;
11677;SDS011;5895;41.950;24.372;2023-04-24T08:25:39;5.72;;;5.30;;
11677;SDS011;5895;41.950;24.372;2023-04-24T08:28:06;6.55;;;5.45;;
11677;SDS011;5895;41.950;24.372;2023-04-24T08:30:35;6.47;;;5.70;;
11677;SDS011;5895;41.950;24.372;2023-04-24T08:33:05;5.57;;;5.07;;
11677;SDS011;5895;41.950;24.372;2023-04-24T08:35:32;5.50;;;5.10;;
11677;SDS011;5895;41.950;24.372;2023-04-24T08:37:59;5.70;;;5.20;;
11677;SDS011;5895;41.950;24.372;2023-04-24T08:40:27;5.40;;;4.90;;
11677;SDS011;5895;41.950;24.372;2023-04-24T08:42:55;5.63;;;5.22;;
11677;SDS011;5895;41.950;24.372;2023-04-24T08:45:22;5.80;;;5.18;;
11677;SDS011;5895;41.950;24.372;2023-04-24T08:47:52;5.60;;;4.95;;
11677;SDS011;5895;41.950;24.372;2023-04-24T08:50:21;5.90;;;5.28;;
11677;SDS011;5895;41.950;24.372;2023-04-24T08:52:49;6.15;;;5.22;;
11677;SDS011;5895;41.950;24.372;2023-04-24T08:55:18;6.82;;;5.68;;
11677;SDS011;5895;41.950;24.372;2023-04-24T08:57:50;5.68;;;5.18;;
11677;SDS011;5895;41.950;24.372;2023-04-24T09:00:19;6.10;;;5.50;;
11677;SDS011;5895;41.950;24.372;2023-04-24T09:02:47;5.82;;;5.22;;
11677;SDS011;5895;41.950;24.372;2023-04-24T09:05:16;5.70;;;5.20;;
11677;SDS011;5895;41.950;24.372;2023-04-24T09:07:47;7.60;;;5.30;;
11677;SDS011;5895;41.950;24.372;2023-04-24T09:10:20;6.63;;;5.68;;
11677;SDS011;5895;41.950;24.372;2023-04-24T09:12:48;6.00;;;5.50;;
11677;SDS011;5895;41.950;24.372;2023-04-24T09:15:17;7.97;;;5.65;;
11677;SDS011;5895;41.950;24.372;2023-04-24T09:17:45;5.82;;;5.32;;
11677;SDS011;5895;41.950;24.372;2023-04-24T09:20:12;6.75;;;5.60;;
11677;SDS011;5895;41.950;24.372;2023-04-24T09:22:40;5.78;;;5.28;;
11677;SDS011;5895;41.950;24.372;2023-04-24T09:25:10;5.95;;;5.45;;
11677;SDS011;5895;41.950;24.372;2023-04-24T09:27:41;6.38;;;5.80;;
11677;SDS011;5895;41.950;24.372;2023-04-24T09:30:10;6.50;;;5.85;;
11677;SDS011;5895;41.950;24.372;2023-04-24T09:32:38;6.60;;;6.00;;
11677;SDS011;5895;41.950;24.372;2023-04-24T09:35:07;8.40;;;5.80;;
11677;SDS011;5895;41.950;24.372;2023-04-24T09:37:36;6.25;;;5.75;;
11677;SDS011;5895;41.950;24.372;2023-04-24T09:40:13;8.15;;;6.20;;
11677;SDS011;5895;41.950;24.372;2023-04-24T09:42:45;6.45;;;5.88;;
11677;SDS011;5895;41.950;24.372;2023-04-24T09:45:17;7.18;;;5.80;;
11677;SDS011;5895;41.950;24.372;2023-04-24T09:47:44;6.18;;;5.55;;
11677;SDS011;5895;41.950;24.372;2023-04-24T09:50:13;5.68;;;5.18;;
11677;SDS011;5895;41.950;24.372;2023-04-24T09:52:42;6.40;;;5.85;;
11677;SDS011;5895;41.950;24.372;2023-04-24T09:55:10;6.18;;;5.65;;
11677;SDS011;5895;41.950;24.372;2023-04-24T09:57:52;6.03;;;5.53;;
11677;SDS011;5895;41.950;24.372;2023-04-24T10:00:24;5.85;;;5.18;;
11677;SDS011;5895;41.950;24.372;2023-04-24T10:02:56;5.45;;;4.95;;
11677;SDS011;5895;41.950;24.372;2023-04-24T10:05:25;5.60;;;5.10;;
11677;SDS011;5895;41.950;24.372;2023-04-24T10:07:56;6.28;;;5.75;;
11677;SDS011;5895;41.950;24.372;2023-04-24T10:10:26;5.97;;;4.95;;
11677;SDS011;5895;41.950;24.372;2023-04-24T10:12:53;5.15;;;4.75;;
11677;SDS011;5895;41.950;24.372;2023-04-24T10:15:21;5.50;;;4.80;;
11677;SDS011;5895;41.950;24.372;2023-04-24T10:17:49;5.95;;;4.97;;
11677;SDS011;5895;41.950;24.372;2023-04-24T10:20:19;10.02;;;5.25;;
11677;SDS011;5895;41.950;24.372;2023-04-24T10:22:47;6.20;;;4.80;;
11677;SDS011;5895;41.950;24.372;2023-04-24T10:25:17;5.68;;;5.18;;
11677;SDS011;5895;41.950;24.372;2023-04-24T10:27:48;5.55;;;4.93;;
11677;SDS011;5895;41.950;24.372;2023-04-24T10:30:16;4.97;;;4.55;;
11677;SDS011;5895;41.950;24.372;2023-04-24T10:32:44;4.78;;;4.38;;
11677;SDS011;5895;41.950;24.372;2023-04-24T10:35:12;4.35;;;3.92;;
11677;SDS011;5895;41.950;24.372;2023-04-24T10:37:41;3.60;;;3.30;;
11677;SDS011;5895;41.950;24.372;2023-04-24T10:40:11;3.05;;;2.83;;
11677;SDS011;5895;41.950;24.372;2023-04-24T10:42:42;3.20;;;2.70;;
11677;SDS011;5895;41.950;24.372;2023-04-24T10:45:19;4.30;;;3.17;;
11677;SDS011;5895;41.950;24.372;2023-04-24T10:47:51;4.20;;;3.10;;
11677;SDS011;5895;41.950;24.372;2023-04-24T10:50:19;3.55;;;3.25;;
11677;SDS011;5895;41.950;24.372;2023-04-24T10:52:46;4.00;;;3.22;;
11677;SDS011;5895;41.950;24.372;2023-04-24T10:55:16;4.00;;;3.60;;
11677;SDS011;5895;41.950;24.372;2023-04-24T10:58:05;4.65;;;3.50;;
11677;SDS011;5895;41.950;24.372;2023-04-24T11:00:32;4.32;;;3.08;;
11677;SDS011;5895;41.950;24.372;2023-04-24T11:03:03;4.13;;;3.78;;
11677;SDS011;5895;41.950;24.372;2023-04-24T11:08:22;3.90;;;3.50;;
11677;SDS011;5895;41.950;24.372;2023-04-24T11:10:55;3.80;;;3.50;;
11677;SDS011;5895;41.950;24.372;2023-04-24T11:13:25;5.03;;;3.72;;
11677;SDS011;5895;41.950;24.372;2023-04-24T11:16:12;5.60;;;3.58;;
11677;SDS011;5895;41.950;24.372;2023-04-24T11:18:41;4.07;;;3.67;;
11677;SDS011;5895;41.950;24.372;2023-04-24T11:21:11;4.57;;;3.35;;
11677;SDS011;5895;41.950;24.372;2023-04-24T11:23:39;4.10;;;3.70;;
11677;SDS011;5895;41.950;24.372;2023-04-24T11:26:10;6.45;;;4.00;;
11677;SDS011;5895;41.950;24.372;2023-04-24T11:28:45;3.97;;;3.60;;
11677;SDS011;5895;41.950;24.372;2023-04-24T11:34:09;4.10;;;3.80;;
11677;SDS011;5895;41.950;24.372;2023-04-24T11:36:38;4.72;;;4.28;;
11677;SDS011;5895;41.950;24.372;2023-04-24T11:39:06;4.90;;;3.70;;
11677;SDS011;5895;41.950;24.372;2023-04-24T11:41:33;3.53;;;3.03;;
11677;SDS011;5895;41.950;24.372;2023-04-24T11:44:02;3.47;;;3.28;;
11677;SDS011;5895;41.950;24.372;2023-04-24T11:46:32;3.25;;;2.95;;
11677;SDS011;5895;41.950;24.372;2023-04-24T11:48:59;3.30;;;3.00;;
11677;SDS011;5895;41.950;24.372;2023-04-24T11:51:27;3.45;;;3.00;;
11677;SDS011;5895;41.950;24.372;2023-04-24T11:53:54;3.00;;;2.80;;
11677;SDS011;5895;41.950;24.372;2023-04-24T11:56:22;3.25;;;2.95;;
11677;SDS011;5895;41.950;24.372;2023-04-24T11:58:51;3.15;;;2.38;;
11677;SDS011;5895;41.950;24.372;2023-04-24T12:01:20;3.25;;;3.03;;
11677;SDS011;5895;41.950;24.372;2023-04-24T12:03:48;4.25;;;3.13;;
11677;SDS011;5895;41.950;24.372;2023-04-24T12:06:16;3.63;;;3.33;;
11677;SDS011;5895;41.950;24.372;2023-04-24T12:08:45;3.78;;;3.33;;
11677;SDS011;5895;41.950;24.372;2023-04-24T12:11:14;3.75;;;3.40;;
11677;SDS011;5895;41.950;24.372;2023-04-24T12:13:43;3.50;;;3.20;;
11677;SDS011;5895;41.950;24.372;2023-04-24T12:16:10;3.28;;;2.97;;
11677;SDS011;5895;41.950;24.372;2023-04-24T12:18:42;5.25;;;3.88;;
11677;SDS011;5895;41.950;24.372;2023-04-24T12:21:17;3.75;;;3.45;;
11677;SDS011;5895;41.950;24.372;2023-04-24T12:23:45;3.90;;;3.60;;
11677;SDS011;5895;41.950;24.372;2023-04-24T12:26:15;3.65;;;3.30;;
11677;SDS011;5895;41.950;24.372;2023-04-24T12:28:45;4.18;;;3.78;;
11677;SDS011;5895;41.950;24.372;2023-04-24T12:31:14;3.88;;;3.50;;
11677;SDS011;5895;41.950;24.372;2023-04-24T12:33:43;5.68;;;3.88;;
11677;SDS011;5895;41.950;24.372;2023-04-24T12:36:10;4.43;;;3.83;;
11677;SDS011;5895;41.950;24.372;2023-04-24T12:38:42;3.97;;;3.67;;
11677;SDS011;5895;41.950;24.372;2023-04-24T12:41:12;4.50;;;4.10;;
11677;SDS011;5895;41.950;24.372;2023-04-24T12:43:50;3.80;;;3.50;;
11677;SDS011;5895;41.950;24.372;2023-04-24T12:46:18;3.95;;;3.55;;
11677;SDS011;5895;41.950;24.372;2023-04-24T12:48:47;4.57;;;4.18;;
11677;SDS011;5895;41.950;24.372;2023-04-24T12:51:14;3.83;;;3.55;;
11677;SDS011;5895;41.950;24.372;2023-04-24T12:53:41;4.13;;;3.80;;
11677;SDS011;5895;41.950;24.372;2023-04-24T12:56:08;3.83;;;3.53;;
11677;SDS011;5895;41.950;24.372;2023-04-24T12:58:35;4.70;;;4.00;;
11677;SDS011;5895;41.950;24.372;2023-04-24T13:01:02;3.90;;;3.60;;
11677;SDS011;5895;41.950;24.372;2023-04-24T13:03:29;3.80;;;3.50;;
11677;SDS011;5895;41.950;24.372;2023-04-24T13:05:58;2.67;;;2.47;;
11677;SDS011;5895;41.950;24.372;2023-04-24T13:08:25;3.28;;;2.97;;
11677;SDS011;5895;41.950;24.372;2023-04-24T13:10:52;3.20;;;2.90;;
11677;SDS011;5895;41.950;24.372;2023-04-24T13:13:19;4.20;;;3.80;;
11677;SDS011;5895;41.950;24.372;2023-04-24T13:15:47;4.38;;;4.00;;
11677;SDS011;5895;41.950;24.372;2023-04-24T13:18:14;3.90;;;3.50;;
11677;SDS011;5895;41.950;24.372;2023-04-24T13:20:41;3.70;;;3.40;;
11677;SDS011;5895;41.950;24.372;2023-04-24T13:23:10;4.13;;;3.72;;
11677;SDS011;5895;41.950;24.372;2023-04-24T13:25:37;4.13;;;3.58;;
11677;SDS011;5895;41.950;24.372;2023-04-24T13:28:04;4.38;;;3.97;;
11677;SDS011;5895;41.950;24.372;2023-04-24T13:30:31;4.05;;;3.75;;
11677;SDS011;5895;41.950;24.372;2023-04-24T13:32:59;3.97;;;3.60;;
11677;SDS011;5895;41.950;24.372;2023-04-24T13:35:26;3.60;;;3.30;;
11677;SDS011;5895;41.950;24.372;2023-04-24T13:37:53;3.92;;;3.42;;
11677;SDS011;5895;41.950;24.372;2023-04-24T13:40:22;4.00;;;3.60;;
11677;SDS011;5895;41.950;24.372;2023-04-24T13:42:50;3.75;;;3.30;;
11677;SDS011;5895;41.950;24.372;2023-04-24T13:45:17;3.90;;;3.60;;
11677;SDS011;5895;41.950;24.372;2023-04-24T13:47:44;7.88;;;3.60;;
11677;SDS011;5895;41.950;24.372;2023-04-24T13:50:11;4.68;;;3.70;;
11677;SDS011;5895;41.950;24.372;2023-04-24T13:52:38;4.10;;;3.80;;
11677;SDS011;5895;41.950;24.372;2023-04-24T13:55:06;4.38;;;3.80;;
11677;SDS011;5895;41.950;24.372;2023-04-24T13:57:35;4.55;;;4.15;;
11677;SDS011;5895;41.950;24.372;2023-04-24T14:00:02;5.45;;;4.25;;
11677;SDS011;5895;41.950;24.372;2023-04-24T14:02:31;6.00;;;4.20;;
11677;SDS011;5895;41.950;24.372;2023-04-24T14:04:58;5.15;;;4.40;;
11677;SDS011;5895;41.950;24.372;2023-04-24T14:07:25;5.13;;;4.72;;
11677;SDS011;5895;41.950;24.372;2023-04-24T14:09:52;5.55;;;4.90;;
11677;SDS011;5895;41.950;24.372;2023-04-24T14:12:19;5.15;;;4.72;;
11677;SDS011;5895;41.950;24.372;2023-04-24T14:14:48;5.28;;;4.88;;
11677;SDS011;5895;41.950;24.372;2023-04-24T14:17:15;5.85;;;5.25;;
11677;SDS011;5895;41.950;24.372;2023-04-24T14:19:42;7.38;;;4.63;;
11677;SDS011;5895;41.950;24.372;2023-04-24T14:22:09;4.90;;;4.50;;
11677;SDS011;5895;41.950;24.372;2023-04-24T14:24:37;5.38;;;4.55;;
11677;SDS011;5895;41.950;24.372;2023-04-24T14:27:04;6.03;;;4.60;;
11677;SDS011;5895;41.950;24.372;2023-04-24T14:29:31;5.82;;;4.78;;
11677;SDS011;5895;41.950;24.372;2023-04-24T14:31:59;4.80;;;4.40;;
11677;SDS011;5895;41.950;24.372;2023-04-24T14:34:27;6.28;;;4.47;;
11677;SDS011;5895;41.950;24.372;2023-04-24T14:36:54;4.82;;;4.20;;
11677;SDS011;5895;41.950;24.372;2023-04-24T14:39:21;4.95;;;4.35;;
11677;SDS011;5895;41.950;24.372;2023-04-24T14:41:48;4.40;;;4.00;;
11677;SDS011;5895;41.950;24.372;2023-04-24T14:44:15;4.65;;;4.25;;
11677;SDS011;5895;41.950;24.372;2023-04-24T14:46:42;4.78;;;4.18;;
11677;SDS011;5895;41.950;24.372;2023-04-24T14:49:11;4.35;;;3.92;;
11677;SDS011;5895;41.950;24.372;2023-04-24T14:51:38;4.97;;;4.50;;
11677;SDS011;5895;41.950;24.372;2023-04-24T14:54:05;4.97;;;4.47;;
11677;SDS011;5895;41.950;24.372;2023-04-24T14:56:33;5.53;;;5.03;;